createdAt,value
2022-10-04T00:00:39.828Z,97364.96
2022-10-04T00:03:39.154Z,97368.27
2022-10-04T00:06:16.277Z,97369.14
2022-10-04T00:08:51.144Z,97366.88
2022-10-04T00:11:39.166Z,97371.75
2022-10-04T00:14:16.475Z,97376.00
2022-10-04T00:16:45.365Z,97375.83
2022-10-04T00:19:16.313Z,97373.66
2022-10-04T00:21:53.611Z,97376.70
2022-10-04T00:24:32.637Z,97373.17
2022-10-04T00:27:30.080Z,97374.24
2022-10-04T00:30:04.402Z,97373.59
2022-10-04T00:32:41.483Z,97371.22
2022-10-04T00:35:27.646Z,97371.82
2022-10-04T00:37:59.921Z,97374.53
2022-10-04T00:40:39.814Z,97375.89
2022-10-04T00:43:18.102Z,97378.70
2022-10-04T00:45:52.461Z,97374.05
2022-10-04T00:48:46.920Z,97373.10
2022-10-04T00:51:34.653Z,97369.55
2022-10-04T00:54:41.578Z,97368.14
2022-10-04T00:57:17.828Z,97366.73
2022-10-04T00:59:49.945Z,97363.05
2022-10-04T01:02:21.826Z,97364.19
2022-10-04T01:05:09.303Z,97365.98
2022-10-04T01:08:04.668Z,97364.50
2022-10-04T01:10:41.033Z,97365.39
2022-10-04T01:13:21.659Z,97366.73
2022-10-04T01:16:11.934Z,97369.21
2022-10-04T01:18:43.238Z,97366.52
2022-10-04T01:21:20.659Z,97367.30
2022-10-04T01:23:57.916Z,97369.94
2022-10-04T01:26:34.757Z,97374.73
2022-10-04T01:29:10.325Z,97377.41
2022-10-04T01:31:45.963Z,97374.84
2022-10-04T01:34:19.860Z,97377.69
2022-10-04T01:36:49.960Z,97377.38
2022-10-04T01:39:20.469Z,97372.34
2022-10-04T01:42:24.054Z,97380.02
2022-10-04T01:45:02.984Z,97387.37
2022-10-04T01:47:35.249Z,97384.21
2022-10-04T01:50:15.688Z,97384.73
2022-10-04T01:52:56.178Z,97384.76
2022-10-04T01:55:29.645Z,97387.16
2022-10-04T01:58:17.588Z,97386.84
2022-10-04T02:00:57.139Z,97385.70
2022-10-04T02:03:39.939Z,97388.95
2022-10-04T02:06:10.962Z,97389.67
2022-10-04T02:08:47.276Z,97386.13
2022-10-04T02:11:21.464Z,97385.59
2022-10-04T02:13:53.713Z,97381.00
2022-10-04T02:16:38.834Z,97376.26
2022-10-04T02:19:10.655Z,97376.63
2022-10-04T02:21:39.400Z,97375.97
2022-10-04T02:24:09.770Z,97375.90
2022-10-04T02:26:38.446Z,97373.48
2022-10-04T02:29:07.181Z,97378.94
2022-10-04T02:31:56.346Z,97381.03
2022-10-04T02:34:24.622Z,97380.11
2022-10-04T02:36:53.515Z,97383.00
2022-10-04T02:39:32.904Z,97381.23
2022-10-04T02:42:13.112Z,97385.25
2022-10-04T02:44:49.587Z,97387.67
2022-10-04T02:47:21.861Z,97390.16
2022-10-04T02:49:58.631Z,97391.34
2022-10-04T02:52:47.251Z,97397.30
2022-10-04T02:55:26.745Z,97402.73
2022-10-04T02:57:55.865Z,97408.23
2022-10-04T03:00:32.155Z,97417.70
2022-10-04T03:03:12.714Z,97418.91
2022-10-04T03:05:41.122Z,97418.81
2022-10-04T03:08:09.222Z,97419.45
2022-10-04T03:10:37.369Z,97420.95
2022-10-04T03:13:05.677Z,97424.13
2022-10-04T03:15:33.803Z,97425.25
2022-10-04T03:18:02.448Z,97426.45
2022-10-04T03:20:31.037Z,97426.55
2022-10-04T03:23:02.161Z,97422.41
2022-10-04T03:25:41.806Z,97416.80
2022-10-04T03:28:10.116Z,97417.38
2022-10-04T03:30:44.503Z,97422.90
2022-10-04T03:33:21.081Z,97424.91
2022-10-04T03:35:58.202Z,97431.63
2022-10-04T03:38:28.077Z,97432.03
2022-10-04T03:40:59.420Z,97429.27
2022-10-04T03:43:31.958Z,97423.55
2022-10-04T03:46:10.938Z,97421.40
2022-10-04T03:48:43.663Z,97427.89
2022-10-04T03:51:18.946Z,97427.71
2022-10-04T03:53:52.959Z,97427.91
2022-10-04T03:56:36.186Z,97427.50
2022-10-04T03:59:08.262Z,97432.47
2022-10-04T04:01:41.364Z,97433.95
2022-10-04T04:04:36.600Z,97436.17
2022-10-04T04:07:20.105Z,97437.48
2022-10-04T04:09:51.424Z,97436.44
2022-10-04T04:12:34.357Z,97435.09
2022-10-04T04:15:03.652Z,97432.99
2022-10-04T04:17:44.180Z,97433.31
2022-10-04T04:20:34.888Z,97431.80
2022-10-04T04:23:02.998Z,97433.31
2022-10-04T04:25:34.968Z,97434.11
2022-10-04T04:28:14.145Z,97435.70
2022-10-04T04:30:49.839Z,97436.52
2022-10-04T04:33:27.378Z,97436.20
2022-10-04T04:36:12.502Z,97437.09
2022-10-04T04:38:59.008Z,97435.51
2022-10-04T04:41:35.533Z,97439.48
2022-10-04T04:44:05.216Z,97442.34
2022-10-04T04:46:33.535Z,97449.89
2022-10-04T04:49:08.164Z,97455.64
2022-10-04T04:51:36.469Z,97458.42
2022-10-04T04:54:07.563Z,97458.70
2022-10-04T04:56:36.093Z,97463.92
2022-10-04T04:59:07.802Z,97467.95
2022-10-04T05:01:42.734Z,97471.36
2022-10-04T05:04:14.138Z,97473.48
2022-10-04T05:07:06.430Z,97474.41
2022-10-04T05:09:37.440Z,97473.51
2022-10-04T05:12:18.290Z,97476.13
2022-10-04T05:14:52.401Z,97481.33
2022-10-04T05:17:27.639Z,97486.48
2022-10-04T05:20:01.931Z,97486.90
2022-10-04T05:22:31.875Z,97491.94
2022-10-04T05:25:07.897Z,97493.76
2022-10-04T05:27:42.970Z,97493.45
2022-10-04T05:30:31.008Z,97494.50
2022-10-04T05:33:17.003Z,97495.43
2022-10-04T05:36:01.148Z,97503.95
2022-10-04T05:38:52.913Z,97508.58
2022-10-04T05:41:52.664Z,97506.27
2022-10-04T05:44:36.672Z,97505.39
2022-10-04T05:47:08.302Z,97503.98
2022-10-04T05:49:46.646Z,97502.17
2022-10-04T05:52:25.585Z,97508.69
2022-10-04T05:55:14.596Z,97508.44
2022-10-04T05:57:50.959Z,97512.63
2022-10-04T06:00:33.985Z,97514.35
2022-10-04T06:03:43.469Z,97516.73
2022-10-04T06:07:09.968Z,97513.35
2022-10-04T06:09:55.470Z,97515.08
2022-10-04T06:12:52.194Z,97517.63
2022-10-04T06:15:45.045Z,97523.80
2022-10-04T06:18:36.433Z,97523.08
2022-10-04T06:21:23.701Z,97523.38
2022-10-04T06:24:04.261Z,97523.54
2022-10-04T06:26:56.702Z,97526.27
2022-10-04T06:29:32.143Z,97533.40
2022-10-04T06:32:19.800Z,97531.33
2022-10-04T06:35:01.672Z,97537.69
2022-10-04T06:37:59.273Z,97540.38
2022-10-04T06:41:00.089Z,97541.90
2022-10-04T06:43:40.810Z,97545.29
2022-10-04T06:46:18.379Z,97547.48
2022-10-04T06:49:14.370Z,97547.54
2022-10-04T06:52:00.974Z,97550.85
2022-10-04T06:54:38.421Z,97555.63
2022-10-04T06:57:10.160Z,97558.78
2022-10-04T06:59:56.323Z,97560.06
2022-10-04T07:02:42.285Z,97565.02
2022-10-04T07:05:30.867Z,97565.70
2022-10-04T07:08:47.477Z,97568.72
2022-10-04T07:11:30.396Z,97568.95
2022-10-04T07:13:58.879Z,97571.67
2022-10-04T07:16:36.471Z,97574.27
2022-10-04T07:19:25.046Z,97581.84
2022-10-04T07:22:08.671Z,97586.82
2022-10-04T07:24:43.293Z,97593.73
2022-10-04T07:27:17.946Z,97598.20
2022-10-04T07:29:53.164Z,97604.42
2022-10-04T07:32:28.837Z,97605.09
2022-10-04T07:35:16.980Z,97607.27
2022-10-04T07:38:13.497Z,97611.08
2022-10-04T07:41:10.133Z,97622.94
2022-10-04T07:43:48.949Z,97620.86
2022-10-04T07:46:40.584Z,97627.73
2022-10-04T07:49:16.859Z,97626.56
2022-10-04T07:52:04.677Z,97629.48
2022-10-04T07:55:08.911Z,97627.25
2022-10-04T07:57:49.663Z,97625.98
2022-10-04T08:00:35.868Z,97624.58
2022-10-04T08:03:39.383Z,97626.11
2022-10-04T08:06:14.618Z,97624.11
2022-10-04T08:09:03.630Z,97628.32
2022-10-04T08:11:41.024Z,97628.04
2022-10-04T08:14:21.436Z,97633.96
2022-10-04T08:17:01.204Z,97636.15
2022-10-04T08:20:02.124Z,97640.06
2022-10-04T08:22:30.402Z,97640.75
2022-10-04T08:25:04.614Z,97641.41
2022-10-04T08:28:07.832Z,97638.34
2022-10-04T08:31:07.338Z,97636.92
2022-10-04T08:33:47.972Z,97638.34
2022-10-04T08:36:25.234Z,97638.02
2022-10-04T08:39:00.319Z,97643.48
2022-10-04T08:41:43.754Z,97644.14
2022-10-04T08:44:17.470Z,97646.77
2022-10-04T08:47:12.688Z,97646.95
2022-10-04T08:49:59.676Z,97647.71
2022-10-04T08:52:46.895Z,97648.64
2022-10-04T08:55:37.497Z,97658.14
2022-10-04T08:58:18.440Z,97662.55
2022-10-04T09:01:19.844Z,97668.38
2022-10-04T09:04:31.925Z,97670.06
2022-10-04T09:07:15.054Z,97669.63
2022-10-04T09:10:01.501Z,97666.77
2022-10-04T09:12:57.051Z,97669.02
2022-10-04T09:15:44.665Z,97669.48
2022-10-04T09:18:12.673Z,97666.62
2022-10-04T09:21:02.763Z,97667.14
2022-10-04T09:23:31.354Z,97669.66
2022-10-04T09:26:44.222Z,97675.33
2022-10-04T09:29:53.094Z,97677.13
2022-10-04T09:32:41.034Z,97681.96
2022-10-04T09:35:24.361Z,97682.59
2022-10-04T09:38:29.911Z,97685.48
2022-10-04T09:41:16.620Z,97684.73
2022-10-04T09:44:00.979Z,97682.16
2022-10-04T09:46:51.191Z,97681.16
2022-10-04T09:49:47.402Z,97681.08
2022-10-04T09:52:21.507Z,97679.97
2022-10-04T09:54:58.489Z,97680.20
2022-10-04T09:58:04.346Z,97684.92
2022-10-04T10:00:47.787Z,97690.42
2022-10-04T10:03:57.164Z,97689.61
2022-10-04T10:06:41.693Z,97687.95
2022-10-04T10:09:13.334Z,97691.73
2022-10-04T10:12:36.194Z,97693.72
2022-10-04T10:15:28.272Z,97692.58
2022-10-04T10:18:56.198Z,97689.16
2022-10-04T10:21:42.853Z,97687.29
2022-10-04T10:24:30.233Z,97682.32
2022-10-04T10:27:30.506Z,97680.61
2022-10-04T10:30:10.565Z,97688.08
2022-10-04T10:33:10.838Z,97684.23
2022-10-04T10:36:21.714Z,97679.48
2022-10-04T10:39:17.433Z,97685.08
2022-10-04T10:42:06.521Z,97692.14
2022-10-04T10:44:41.737Z,97691.70
2022-10-04T10:47:16.188Z,97685.55
2022-10-04T10:49:54.158Z,97691.27
2022-10-04T10:52:46.926Z,97693.19
2022-10-04T10:55:43.255Z,97697.01
2022-10-04T10:58:52.179Z,97695.59
2022-10-04T11:01:35.631Z,97697.92
2022-10-04T11:04:12.531Z,97693.70
2022-10-04T11:06:58.890Z,97693.72
2022-10-04T11:10:08.332Z,97697.29
2022-10-04T11:13:07.433Z,97691.66
2022-10-04T11:16:16.407Z,97687.90
2022-10-04T11:19:21.787Z,97691.77
2022-10-04T11:22:08.518Z,97693.58
2022-10-04T11:24:46.712Z,97696.64
2022-10-04T11:27:48.792Z,97701.11
2022-10-04T11:30:26.800Z,97704.73
2022-10-04T11:33:10.461Z,97704.98
2022-10-04T11:35:58.150Z,97707.27
2022-10-04T11:38:27.473Z,97708.36
2022-10-04T11:41:16.798Z,97706.64
2022-10-04T11:43:47.636Z,97706.40
2022-10-04T11:46:29.754Z,97708.33
2022-10-04T11:49:25.316Z,97711.65
2022-10-04T11:52:17.801Z,97717.06
2022-10-04T11:55:21.317Z,97716.81
2022-10-04T11:58:03.080Z,97721.80
2022-10-04T12:00:58.746Z,97728.90
2022-10-04T12:03:47.570Z,97731.30
2022-10-04T12:06:50.548Z,97741.36
2022-10-04T12:10:02.037Z,97742.84
2022-10-04T12:12:47.326Z,97740.58
2022-10-04T12:15:52.679Z,97738.51
2022-10-04T12:18:33.257Z,97739.73
2022-10-04T12:21:22.575Z,97735.45
2022-10-04T12:24:05.552Z,97740.02
2022-10-04T12:26:52.859Z,97739.54
2022-10-04T12:29:42.922Z,97734.51
2022-10-04T12:32:20.210Z,97735.45
2022-10-04T12:35:45.215Z,97734.66
2022-10-04T12:38:28.341Z,97732.96
2022-10-04T12:40:56.394Z,97733.60
2022-10-04T12:43:45.790Z,97732.64
2022-10-04T12:46:21.811Z,97731.18
2022-10-04T12:49:01.929Z,97730.92
2022-10-04T12:51:42.971Z,97734.69
2022-10-04T12:54:32.169Z,97738.76
2022-10-04T12:57:25.982Z,97735.42
2022-10-04T13:00:20.719Z,97739.55
2022-10-04T13:02:49.089Z,97740.95
2022-10-04T13:05:30.069Z,97741.52
2022-10-04T13:08:21.285Z,97742.66
2022-10-04T13:11:21.507Z,97743.01
2022-10-04T13:14:08.624Z,97747.98
2022-10-04T13:17:31.101Z,97753.38
2022-10-04T13:20:26.397Z,97757.65
2022-10-04T13:23:15.630Z,97763.83
2022-10-04T13:25:53.045Z,97763.84
2022-10-04T13:28:39.836Z,97765.16
2022-10-04T13:31:13.744Z,97768.02
2022-10-04T13:34:12.735Z,97772.45
2022-10-04T13:36:46.685Z,97777.20
2022-10-04T13:40:01.506Z,97778.92
2022-10-04T13:42:36.981Z,97780.11
2022-10-04T13:45:49.528Z,97782.05
2022-10-04T13:48:26.987Z,97784.36
2022-10-04T13:51:01.513Z,97783.98
2022-10-04T13:54:00.305Z,97787.23
2022-10-04T13:56:58.893Z,97786.34
2022-10-04T13:59:42.768Z,97794.61
2022-10-04T14:02:47.874Z,97797.98
2022-10-04T14:05:43.491Z,97798.41
2022-10-04T14:08:45.935Z,97799.02
2022-10-04T14:11:14.043Z,97801.98
2022-10-04T14:14:01.902Z,97801.75
2022-10-04T14:16:57.569Z,97802.26
2022-10-04T14:20:06.937Z,97804.67
2022-10-04T14:23:02.809Z,97804.54
2022-10-04T14:25:58.891Z,97805.34
2022-10-04T14:28:46.015Z,97805.29
2022-10-04T14:31:21.266Z,97809.89
2022-10-04T14:34:01.710Z,97814.91
2022-10-04T14:36:36.506Z,97816.49
2022-10-04T14:39:19.410Z,97818.55
2022-10-04T14:42:31.462Z,97819.48
2022-10-04T14:45:18.891Z,97822.27
2022-10-04T14:48:12.103Z,97825.08
2022-10-04T14:51:21.649Z,97825.95
2022-10-04T14:54:05.659Z,97828.69
2022-10-04T14:56:45.909Z,97837.45
2022-10-04T14:59:14.174Z,97845.42
2022-10-04T15:02:13.162Z,97845.92
2022-10-04T15:05:03.156Z,97848.59
2022-10-04T15:07:45.156Z,97849.69
2022-10-04T15:10:28.256Z,97852.39
2022-10-04T15:13:12.251Z,97851.67
2022-10-04T15:15:47.069Z,97855.44
2022-10-04T15:18:55.060Z,97855.36
2022-10-04T15:21:51.191Z,97857.60
2022-10-04T15:24:19.136Z,97860.52
2022-10-04T15:26:57.782Z,97866.70
2022-10-04T15:29:36.305Z,97866.52
2022-10-04T15:32:26.761Z,97869.36
2022-10-04T15:34:55.072Z,97876.77
2022-10-04T15:37:53.930Z,97878.70
2022-10-04T15:40:40.990Z,97878.27
2022-10-04T15:43:24.778Z,97882.50
2022-10-04T15:46:25.432Z,97888.08
2022-10-04T15:49:06.359Z,97895.66
2022-10-04T15:52:10.834Z,97899.16
2022-10-04T15:55:17.861Z,97903.05
2022-10-04T15:57:46.245Z,97909.23
2022-10-04T16:00:22.551Z,97911.73
2022-10-04T16:03:02.961Z,97916.45
2022-10-04T16:06:08.433Z,97922.19
2022-10-04T16:09:17.263Z,97925.30
2022-10-04T16:11:48.483Z,97927.72
2022-10-04T16:14:27.919Z,97930.58
2022-10-04T16:17:26.934Z,97932.01
2022-10-04T16:20:10.044Z,97936.17
2022-10-04T16:22:38.483Z,97934.59
2022-10-04T16:25:24.759Z,97942.04
2022-10-04T16:27:58.856Z,97946.39
2022-10-04T16:30:50.755Z,97950.15
2022-10-04T16:33:57.690Z,97951.94
2022-10-04T16:36:44.673Z,97957.73
2022-10-04T16:39:59.673Z,97960.58
2022-10-04T16:43:18.237Z,97964.95
2022-10-04T16:45:49.727Z,97966.34
2022-10-04T16:48:33.746Z,97965.11
2022-10-04T16:51:04.795Z,97971.32
2022-10-04T16:53:48.261Z,97979.08
2022-10-04T16:56:24.592Z,97982.14
2022-10-04T16:59:04.639Z,97988.91
2022-10-04T17:02:23.180Z,97993.50
2022-10-04T17:05:17.263Z,97997.36
2022-10-04T17:07:57.759Z,98002.54
2022-10-04T17:10:42.625Z,98000.50
2022-10-04T17:13:36.261Z,98001.93
2022-10-04T17:16:32.302Z,98000.03
2022-10-04T17:19:16.069Z,97999.88
2022-10-04T17:22:06.031Z,98009.29
2022-10-04T17:24:43.714Z,98011.26
2022-10-04T17:27:28.271Z,98006.48
2022-10-04T17:30:12.715Z,98008.69
2022-10-04T17:33:28.517Z,98015.52
2022-10-04T17:36:14.405Z,98022.70
2022-10-04T17:38:50.368Z,98026.55
2022-10-04T17:41:57.655Z,98028.36
2022-10-04T17:44:43.698Z,98032.71
2022-10-04T17:47:55.350Z,98035.59
2022-10-04T17:50:54.886Z,98040.73
2022-10-04T17:53:47.611Z,98047.75
2022-10-04T17:56:30.834Z,98052.39
2022-10-04T17:58:59.732Z,98057.89
2022-10-04T18:01:35.099Z,98058.37
2022-10-04T18:04:30.431Z,98055.17
2022-10-04T18:07:04.901Z,98055.60
2022-10-04T18:09:48.434Z,98057.47
2022-10-04T18:12:45.689Z,98063.38
2022-10-04T18:15:27.390Z,98083.95
2022-10-04T18:18:16.457Z,98088.75
2022-10-04T18:20:53.628Z,98090.90
2022-10-04T18:23:29.900Z,98099.46
2022-10-04T18:26:05.337Z,98101.20
2022-10-04T18:28:39.235Z,98104.75
2022-10-04T18:31:26.899Z,98104.48
2022-10-04T18:33:58.117Z,98100.23
2022-10-04T18:36:51.182Z,98099.74
2022-10-04T18:39:22.853Z,98100.44
2022-10-04T18:42:14.668Z,98098.89
2022-10-04T18:44:59.737Z,98099.75
2022-10-04T18:47:39.276Z,98105.49
2022-10-04T18:50:32.849Z,98110.16
2022-10-04T18:53:25.736Z,98114.13
2022-10-04T18:56:08.006Z,98117.35
2022-10-04T18:59:28.006Z,98123.46
2022-10-04T19:02:18.937Z,98123.33
2022-10-04T19:05:23.954Z,98121.58
2022-10-04T19:08:05.561Z,98125.01
2022-10-04T19:11:03.300Z,98126.29
2022-10-04T19:13:49.509Z,98130.64
2022-10-04T19:16:31.228Z,98134.68
2022-10-04T19:19:10.521Z,98137.17
2022-10-04T19:21:45.659Z,98140.73
2022-10-04T19:24:53.156Z,98140.64
2022-10-04T19:27:32.285Z,98136.41
2022-10-04T19:30:26.062Z,98131.91
2022-10-04T19:33:20.462Z,98133.77
2022-10-04T19:36:03.918Z,98136.05
2022-10-04T19:38:41.170Z,98137.69
2022-10-04T19:41:27.366Z,98139.98
2022-10-04T19:44:34.353Z,98144.73
2022-10-04T19:47:20.756Z,98141.92
2022-10-04T19:49:53.230Z,98141.83
2022-10-04T19:52:54.949Z,98146.64
2022-10-04T19:55:59.824Z,98143.64
2022-10-04T19:58:32.402Z,98146.52
2022-10-04T20:01:33.668Z,98152.72
2022-10-04T20:04:25.901Z,98156.75
2022-10-04T20:06:57.035Z,98155.47
2022-10-04T20:10:17.022Z,98150.27
2022-10-04T20:13:08.034Z,98156.04
2022-10-04T20:15:39.280Z,98161.65
2022-10-04T20:18:33.481Z,98163.59
2022-10-04T20:21:10.752Z,98164.88
2022-10-04T20:24:04.633Z,98166.77
2022-10-04T20:26:55.012Z,98174.31
2022-10-04T20:29:38.049Z,98180.60
2022-10-04T20:32:34.576Z,98183.73
2022-10-04T20:35:06.555Z,98196.41
2022-10-04T20:42:19.899Z,98198.55
2022-10-04T20:45:20.710Z,98200.06
2022-10-04T20:47:59.267Z,98201.89
2022-10-04T20:50:37.375Z,98210.25
2022-10-04T20:53:15.163Z,98212.23
2022-10-04T20:55:51.584Z,98212.06
2022-10-04T20:58:35.328Z,98212.02
2022-10-04T21:01:58.075Z,98214.15
2022-10-04T21:04:33.088Z,98216.55
2022-10-04T21:07:26.947Z,98221.29
2022-10-04T21:10:07.846Z,98227.86
2022-10-04T21:12:35.993Z,98230.32
2022-10-04T21:15:21.067Z,98236.97
2022-10-04T21:18:07.389Z,98236.69
2022-10-04T21:20:52.870Z,98238.17
2022-10-04T21:23:30.434Z,98241.86
2022-10-04T21:26:23.420Z,98245.02
2022-10-04T21:28:54.639Z,98242.52
2022-10-04T21:31:24.861Z,98243.31
2022-10-04T21:34:48.182Z,98244.91
2022-10-04T21:37:10.479Z,98245.49
2022-10-04T21:39:50.109Z,98243.50
2022-10-04T21:42:18.694Z,98245.08
2022-10-04T21:45:07.464Z,98247.92
2022-10-04T21:47:37.677Z,98244.27
2022-10-04T21:50:07.511Z,98243.91
2022-10-04T21:52:40.274Z,98246.31
2022-10-04T21:55:10.906Z,98250.11
2022-10-04T21:57:39.384Z,98246.17
2022-10-04T22:00:10.662Z,98249.00
2022-10-04T22:02:43.744Z,98252.95
2022-10-04T22:05:26.838Z,98251.17
2022-10-04T22:07:55.017Z,98251.37
2022-10-04T22:10:57.845Z,98252.95
2022-10-04T22:13:36.217Z,98253.24
2022-10-04T22:16:27.378Z,98254.26
2022-10-04T22:19:53.360Z,98257.23
2022-10-04T22:22:26.345Z,98266.73
2022-10-04T22:24:55.955Z,98266.48
2022-10-04T22:27:51.992Z,98273.23
2022-10-04T22:30:27.192Z,98275.67
2022-10-04T22:32:58.485Z,98275.40
2022-10-04T22:35:30.224Z,98278.02
2022-10-04T22:38:00.001Z,98279.58
2022-10-04T22:40:40.713Z,98280.31
2022-10-04T22:43:14.459Z,98284.70
2022-10-04T22:45:43.526Z,98282.28
2022-10-04T22:48:15.648Z,98285.53
2022-10-04T22:50:43.757Z,98285.14
2022-10-04T22:53:16.308Z,98286.42
2022-10-04T22:55:44.260Z,98290.64
2022-10-04T22:58:16.812Z,98289.39
2022-10-04T23:00:45.442Z,98294.61
2022-10-04T23:03:34.664Z,98296.48
2022-10-04T23:06:03.191Z,98298.91
2022-10-04T23:08:31.427Z,98302.77
2022-10-04T23:11:00.825Z,98306.29
2022-10-04T23:13:28.974Z,98309.76
2022-10-04T23:16:10.002Z,98312.00
2022-10-04T23:18:38.864Z,98311.22
2022-10-04T23:21:19.838Z,98312.70
2022-10-04T23:23:48.883Z,98313.53
2022-10-04T23:26:23.482Z,98316.67
2022-10-04T23:28:52.042Z,98319.83
2022-10-04T23:31:24.921Z,98320.08
2022-10-04T23:33:56.675Z,98320.20
2022-10-04T23:36:25.064Z,98322.45
2022-10-04T23:38:59.094Z,98325.88
2022-10-04T23:41:27.351Z,98326.50
2022-10-04T23:43:55.733Z,98322.41
2022-10-04T23:46:24.779Z,98323.52
2022-10-04T23:48:52.911Z,98328.61
2022-10-04T23:51:21.540Z,98328.66
2022-10-04T23:53:50.580Z,98331.79
2022-10-04T23:56:25.004Z,98332.37
2022-10-04T23:58:55.642Z,98334.23
